sensor_id;sensor_type;location;lat;lon;timestamp;P1;durP1;ratioP1;P2;durP2;ratioP2
70169;SDS011;57543;45.442;9.212;2023-02-17T00:00:12;16.90;;;7.97;;
70169;SDS011;57543;45.442;9.212;2023-02-17T00:03:16;16.77;;;8.15;;
70169;SDS011;57543;45.442;9.212;2023-02-17T00:06:20;13.53;;;7.43;;
70169;SDS011;57543;45.442;9.212;2023-02-17T00:09:25;13.52;;;7.68;;
70169;SDS011;57543;45.442;9.212;2023-02-17T00:12:28;14.98;;;7.90;;
70169;SDS011;57543;45.442;9.212;2023-02-17T00:15:32;12.80;;;7.38;;
70169;SDS011;57543;45.442;9.212;2023-02-17T00:18:37;15.60;;;9.10;;
70169;SDS011;57543;45.442;9.212;2023-02-17T00:21:41;13.73;;;7.80;;
70169;SDS011;57543;45.442;9.212;2023-02-17T00:24:44;14.18;;;7.32;;
70169;SDS011;57543;45.442;9.212;2023-02-17T00:27:47;14.82;;;7.68;;
70169;SDS011;57543;45.442;9.212;2023-02-17T00:30:51;13.95;;;7.20;;
70169;SDS011;57543;45.442;9.212;2023-02-17T00:33:57;14.93;;;8.35;;
70169;SDS011;57543;45.442;9.212;2023-02-17T00:37:03;14.10;;;7.73;;
70169;SDS011;57543;45.442;9.212;2023-02-17T00:40:06;12.15;;;6.97;;
70169;SDS011;57543;45.442;9.212;2023-02-17T00:43:10;13.75;;;7.35;;
70169;SDS011;57543;45.442;9.212;2023-02-17T00:46:14;11.23;;;7.60;;
70169;SDS011;57543;45.442;9.212;2023-02-17T00:49:24;13.07;;;7.30;;
70169;SDS011;57543;45.442;9.212;2023-02-17T00:52:28;11.80;;;6.80;;
70169;SDS011;57543;45.442;9.212;2023-02-17T00:55:32;14.10;;;7.60;;
70169;SDS011;57543;45.442;9.212;2023-02-17T00:58:36;11.20;;;7.50;;
70169;SDS011;57543;45.442;9.212;2023-02-17T01:01:40;11.10;;;7.00;;
70169;SDS011;57543;45.442;9.212;2023-02-17T01:04:45;12.35;;;7.18;;
70169;SDS011;57543;45.442;9.212;2023-02-17T01:07:51;14.97;;;8.00;;
70169;SDS011;57543;45.442;9.212;2023-02-17T01:10:55;12.18;;;7.70;;
70169;SDS011;57543;45.442;9.212;2023-02-17T01:14:00;13.05;;;7.32;;
70169;SDS011;57543;45.442;9.212;2023-02-17T01:17:04;12.80;;;6.95;;
70169;SDS011;57543;45.442;9.212;2023-02-17T01:20:08;11.93;;;7.93;;
70169;SDS011;57543;45.442;9.212;2023-02-17T01:23:12;14.67;;;7.43;;
70169;SDS011;57543;45.442;9.212;2023-02-17T01:26:18;14.95;;;7.60;;
70169;SDS011;57543;45.442;9.212;2023-02-17T01:29:23;13.68;;;7.30;;
70169;SDS011;57543;45.442;9.212;2023-02-17T01:32:27;11.68;;;7.40;;
70169;SDS011;57543;45.442;9.212;2023-02-17T01:35:32;13.52;;;7.90;;
70169;SDS011;57543;45.442;9.212;2023-02-17T01:38:36;15.80;;;7.37;;
70169;SDS011;57543;45.442;9.212;2023-02-17T01:41:40;13.00;;;8.00;;
70169;SDS011;57543;45.442;9.212;2023-02-17T01:48:35;11.38;;;7.22;;
70169;SDS011;57543;45.442;9.212;2023-02-17T01:51:40;13.40;;;7.70;;
70169;SDS011;57543;45.442;9.212;2023-02-17T01:54:49;13.17;;;7.27;;
70169;SDS011;57543;45.442;9.212;2023-02-17T01:57:57;14.38;;;8.10;;
70169;SDS011;57543;45.442;9.212;2023-02-17T02:01:02;12.20;;;7.25;;
70169;SDS011;57543;45.442;9.212;2023-02-17T02:04:07;14.00;;;6.90;;
70169;SDS011;57543;45.442;9.212;2023-02-17T02:07:13;12.57;;;7.10;;
70169;SDS011;57543;45.442;9.212;2023-02-17T02:10:21;13.07;;;7.43;;
70169;SDS011;57543;45.442;9.212;2023-02-17T02:13:24;12.98;;;7.80;;
70169;SDS011;57543;45.442;9.212;2023-02-17T02:16:35;14.55;;;8.50;;
70169;SDS011;57543;45.442;9.212;2023-02-17T02:23:45;13.52;;;8.00;;
70169;SDS011;57543;45.442;9.212;2023-02-17T02:34:05;13.13;;;8.50;;
70169;SDS011;57543;45.442;9.212;2023-02-17T02:37:13;15.05;;;9.38;;
70169;SDS011;57543;45.442;9.212;2023-02-17T02:40:21;15.43;;;9.63;;
70169;SDS011;57543;45.442;9.212;2023-02-17T02:43:29;13.97;;;8.80;;
70169;SDS011;57543;45.442;9.212;2023-02-17T02:46:33;14.35;;;8.05;;
70169;SDS011;57543;45.442;9.212;2023-02-17T02:49:37;16.17;;;8.27;;
70169;SDS011;57543;45.442;9.212;2023-02-17T02:53:17;14.80;;;8.18;;
70169;SDS011;57543;45.442;9.212;2023-02-17T02:56:37;13.43;;;8.55;;
70169;SDS011;57543;45.442;9.212;2023-02-17T03:03:16;14.57;;;8.00;;
70169;SDS011;57543;45.442;9.212;2023-02-17T03:06:48;15.20;;;8.27;;
70169;SDS011;57543;45.442;9.212;2023-02-17T03:09:59;16.23;;;8.60;;
70169;SDS011;57543;45.442;9.212;2023-02-17T03:13:03;13.23;;;7.95;;
70169;SDS011;57543;45.442;9.212;2023-02-17T03:16:07;13.03;;;7.70;;
70169;SDS011;57543;45.442;9.212;2023-02-17T03:19:11;12.77;;;7.95;;
70169;SDS011;57543;45.442;9.212;2023-02-17T03:22:19;14.05;;;7.30;;
70169;SDS011;57543;45.442;9.212;2023-02-17T03:25:27;13.85;;;7.22;;
70169;SDS011;57543;45.442;9.212;2023-02-17T03:28:31;13.30;;;7.82;;
70169;SDS011;57543;45.442;9.212;2023-02-17T03:31:35;13.03;;;7.47;;
70169;SDS011;57543;45.442;9.212;2023-02-17T03:34:38;12.77;;;7.50;;
70169;SDS011;57543;45.442;9.212;2023-02-17T03:37:42;14.90;;;8.00;;
70169;SDS011;57543;45.442;9.212;2023-02-17T03:40:45;13.63;;;7.88;;
70169;SDS011;57543;45.442;9.212;2023-02-17T03:43:49;13.63;;;7.95;;
70169;SDS011;57543;45.442;9.212;2023-02-17T03:46:52;14.63;;;8.33;;
70169;SDS011;57543;45.442;9.212;2023-02-17T03:49:56;15.05;;;8.65;;
70169;SDS011;57543;45.442;9.212;2023-02-17T03:52:59;14.70;;;8.70;;
70169;SDS011;57543;45.442;9.212;2023-02-17T03:56:03;16.05;;;9.38;;
70169;SDS011;57543;45.442;9.212;2023-02-17T03:59:07;18.85;;;9.70;;
70169;SDS011;57543;45.442;9.212;2023-02-17T04:02:10;18.83;;;9.87;;
70169;SDS011;57543;45.442;9.212;2023-02-17T04:05:14;17.17;;;10.15;;
70169;SDS011;57543;45.442;9.212;2023-02-17T04:08:17;18.20;;;9.98;;
70169;SDS011;57543;45.442;9.212;2023-02-17T04:11:21;18.42;;;10.48;;
70169;SDS011;57543;45.442;9.212;2023-02-17T04:14:25;19.73;;;10.82;;
70169;SDS011;57543;45.442;9.212;2023-02-17T04:17:28;18.20;;;11.37;;
70169;SDS011;57543;45.442;9.212;2023-02-17T04:20:32;19.60;;;11.52;;
70169;SDS011;57543;45.442;9.212;2023-02-17T04:23:36;19.83;;;11.52;;
70169;SDS011;57543;45.442;9.212;2023-02-17T04:26:40;19.50;;;11.93;;
70169;SDS011;57543;45.442;9.212;2023-02-17T04:29:43;22.08;;;11.65;;
70169;SDS011;57543;45.442;9.212;2023-02-17T04:32:46;21.07;;;11.73;;
70169;SDS011;57543;45.442;9.212;2023-02-17T04:35:50;21.25;;;12.07;;
70169;SDS011;57543;45.442;9.212;2023-02-17T04:38:56;20.80;;;12.35;;
70169;SDS011;57543;45.442;9.212;2023-02-17T04:41:59;21.50;;;12.27;;
70169;SDS011;57543;45.442;9.212;2023-02-17T04:45:03;22.23;;;12.55;;
70169;SDS011;57543;45.442;9.212;2023-02-17T04:48:07;21.63;;;12.50;;
70169;SDS011;57543;45.442;9.212;2023-02-17T04:51:11;20.20;;;11.82;;
70169;SDS011;57543;45.442;9.212;2023-02-17T04:54:14;21.90;;;12.27;;
70169;SDS011;57543;45.442;9.212;2023-02-17T04:57:17;20.42;;;12.10;;
70169;SDS011;57543;45.442;9.212;2023-02-17T05:00:21;21.88;;;12.23;;
70169;SDS011;57543;45.442;9.212;2023-02-17T05:03:25;23.27;;;12.67;;
70169;SDS011;57543;45.442;9.212;2023-02-17T05:06:29;23.13;;;13.38;;
70169;SDS011;57543;45.442;9.212;2023-02-17T05:09:32;21.48;;;12.68;;
70169;SDS011;57543;45.442;9.212;2023-02-17T05:12:36;22.23;;;12.75;;
70169;SDS011;57543;45.442;9.212;2023-02-17T05:15:41;24.02;;;13.70;;
70169;SDS011;57543;45.442;9.212;2023-02-17T05:18:45;24.13;;;13.47;;
70169;SDS011;57543;45.442;9.212;2023-02-17T05:21:49;21.75;;;12.20;;
70169;SDS011;57543;45.442;9.212;2023-02-17T05:24:53;23.42;;;12.95;;
70169;SDS011;57543;45.442;9.212;2023-02-17T05:27:57;22.35;;;13.05;;
70169;SDS011;57543;45.442;9.212;2023-02-17T05:31:00;22.10;;;13.20;;
70169;SDS011;57543;45.442;9.212;2023-02-17T05:34:04;23.70;;;12.67;;
70169;SDS011;57543;45.442;9.212;2023-02-17T05:37:08;23.02;;;13.10;;
70169;SDS011;57543;45.442;9.212;2023-02-17T05:40:12;23.13;;;12.77;;
70169;SDS011;57543;45.442;9.212;2023-02-17T05:43:15;29.23;;;13.80;;
70169;SDS011;57543;45.442;9.212;2023-02-17T05:46:19;23.30;;;12.60;;
70169;SDS011;57543;45.442;9.212;2023-02-17T05:49:22;23.23;;;13.60;;
70169;SDS011;57543;45.442;9.212;2023-02-17T05:52:26;25.80;;;13.85;;
70169;SDS011;57543;45.442;9.212;2023-02-17T05:55:29;25.23;;;13.23;;
70169;SDS011;57543;45.442;9.212;2023-02-17T05:58:33;23.88;;;13.88;;
70169;SDS011;57543;45.442;9.212;2023-02-17T06:01:37;24.40;;;13.95;;
70169;SDS011;57543;45.442;9.212;2023-02-17T06:04:40;26.40;;;14.23;;
70169;SDS011;57543;45.442;9.212;2023-02-17T06:07:44;26.95;;;14.35;;
70169;SDS011;57543;45.442;9.212;2023-02-17T06:10:47;25.30;;;13.80;;
70169;SDS011;57543;45.442;9.212;2023-02-17T06:13:51;24.67;;;13.98;;
70169;SDS011;57543;45.442;9.212;2023-02-17T06:16:55;24.50;;;13.40;;
70169;SDS011;57543;45.442;9.212;2023-02-17T06:19:59;22.90;;;13.10;;
70169;SDS011;57543;45.442;9.212;2023-02-17T06:23:02;24.95;;;13.98;;
70169;SDS011;57543;45.442;9.212;2023-02-17T06:26:06;26.50;;;14.95;;
70169;SDS011;57543;45.442;9.212;2023-02-17T06:29:10;25.58;;;14.45;;
70169;SDS011;57543;45.442;9.212;2023-02-17T06:32:13;23.58;;;14.30;;
70169;SDS011;57543;45.442;9.212;2023-02-17T06:35:17;27.83;;;14.83;;
70169;SDS011;57543;45.442;9.212;2023-02-17T06:38:21;25.67;;;14.38;;
70169;SDS011;57543;45.442;9.212;2023-02-17T06:41:24;29.00;;;14.70;;
70169;SDS011;57543;45.442;9.212;2023-02-17T06:44:28;28.08;;;15.00;;
70169;SDS011;57543;45.442;9.212;2023-02-17T06:47:32;29.55;;;15.10;;
70169;SDS011;57543;45.442;9.212;2023-02-17T06:50:37;25.37;;;14.63;;
70169;SDS011;57543;45.442;9.212;2023-02-17T06:53:40;24.40;;;14.15;;
70169;SDS011;57543;45.442;9.212;2023-02-17T06:56:44;24.90;;;14.13;;
70169;SDS011;57543;45.442;9.212;2023-02-17T06:59:47;27.42;;;14.45;;
70169;SDS011;57543;45.442;9.212;2023-02-17T07:02:51;27.00;;;14.73;;
70169;SDS011;57543;45.442;9.212;2023-02-17T07:05:58;27.17;;;14.90;;
70169;SDS011;57543;45.442;9.212;2023-02-17T07:09:02;23.92;;;14.10;;
70169;SDS011;57543;45.442;9.212;2023-02-17T07:12:06;26.27;;;15.48;;
70169;SDS011;57543;45.442;9.212;2023-02-17T07:15:10;31.33;;;15.48;;
70169;SDS011;57543;45.442;9.212;2023-02-17T07:18:13;27.13;;;14.40;;
70169;SDS011;57543;45.442;9.212;2023-02-17T07:21:17;30.53;;;15.77;;
70169;SDS011;57543;45.442;9.212;2023-02-17T07:24:21;30.30;;;15.90;;
70169;SDS011;57543;45.442;9.212;2023-02-17T07:27:24;28.45;;;16.08;;
70169;SDS011;57543;45.442;9.212;2023-02-17T07:30:28;24.33;;;15.20;;
70169;SDS011;57543;45.442;9.212;2023-02-17T07:33:32;27.08;;;15.00;;
70169;SDS011;57543;45.442;9.212;2023-02-17T07:36:37;31.60;;;16.53;;
70169;SDS011;57543;45.442;9.212;2023-02-17T07:39:41;26.27;;;15.07;;
70169;SDS011;57543;45.442;9.212;2023-02-17T07:42:44;25.67;;;15.15;;
70169;SDS011;57543;45.442;9.212;2023-02-17T07:45:52;25.17;;;14.70;;
70169;SDS011;57543;45.442;9.212;2023-02-17T07:48:58;28.00;;;16.38;;
70169;SDS011;57543;45.442;9.212;2023-02-17T07:52:02;27.43;;;14.80;;
70169;SDS011;57543;45.442;9.212;2023-02-17T07:55:06;24.77;;;14.93;;
70169;SDS011;57543;45.442;9.212;2023-02-17T07:58:09;27.15;;;15.52;;
70169;SDS011;57543;45.442;9.212;2023-02-17T08:01:14;29.30;;;14.60;;
70169;SDS011;57543;45.442;9.212;2023-02-17T08:04:19;25.27;;;13.38;;
70169;SDS011;57543;45.442;9.212;2023-02-17T08:07:23;23.40;;;13.90;;
70169;SDS011;57543;45.442;9.212;2023-02-17T08:10:27;25.15;;;13.65;;
70169;SDS011;57543;45.442;9.212;2023-02-17T08:13:49;23.60;;;13.43;;
70169;SDS011;57543;45.442;9.212;2023-02-17T08:16:53;22.92;;;13.20;;
70169;SDS011;57543;45.442;9.212;2023-02-17T08:19:57;26.10;;;15.65;;
70169;SDS011;57543;45.442;9.212;2023-02-17T08:23:01;22.73;;;15.13;;
70169;SDS011;57543;45.442;9.212;2023-02-17T08:26:06;24.75;;;14.95;;
70169;SDS011;57543;45.442;9.212;2023-02-17T08:29:09;24.42;;;15.25;;
70169;SDS011;57543;45.442;9.212;2023-02-17T08:32:13;24.73;;;15.30;;
70169;SDS011;57543;45.442;9.212;2023-02-17T08:35:17;25.88;;;15.68;;
70169;SDS011;57543;45.442;9.212;2023-02-17T08:38:24;22.43;;;13.73;;
70169;SDS011;57543;45.442;9.212;2023-02-17T08:41:31;22.25;;;14.20;;
70169;SDS011;57543;45.442;9.212;2023-02-17T08:44:36;23.58;;;15.43;;
70169;SDS011;57543;45.442;9.212;2023-02-17T08:47:40;27.58;;;16.30;;
70169;SDS011;57543;45.442;9.212;2023-02-17T08:50:45;27.95;;;16.85;;
70169;SDS011;57543;45.442;9.212;2023-02-17T08:53:50;24.27;;;15.57;;
70169;SDS011;57543;45.442;9.212;2023-02-17T08:56:56;28.15;;;17.10;;
70169;SDS011;57543;45.442;9.212;2023-02-17T09:00:00;25.73;;;15.82;;
70169;SDS011;57543;45.442;9.212;2023-02-17T09:03:04;26.13;;;15.60;;
70169;SDS011;57543;45.442;9.212;2023-02-17T09:06:10;25.17;;;15.85;;
70169;SDS011;57543;45.442;9.212;2023-02-17T09:09:14;28.87;;;17.00;;
70169;SDS011;57543;45.442;9.212;2023-02-17T09:12:19;25.67;;;16.80;;
70169;SDS011;57543;45.442;9.212;2023-02-17T09:15:23;30.40;;;17.45;;
70169;SDS011;57543;45.442;9.212;2023-02-17T09:18:27;27.98;;;17.27;;
70169;SDS011;57543;45.442;9.212;2023-02-17T09:21:31;26.50;;;16.92;;
70169;SDS011;57543;45.442;9.212;2023-02-17T09:24:34;25.40;;;15.93;;
70169;SDS011;57543;45.442;9.212;2023-02-17T09:27:40;23.60;;;15.38;;
70169;SDS011;57543;45.442;9.212;2023-02-17T09:30:43;23.17;;;15.70;;
70169;SDS011;57543;45.442;9.212;2023-02-17T09:33:47;25.40;;;15.82;;
70169;SDS011;57543;45.442;9.212;2023-02-17T09:36:51;23.50;;;15.60;;
70169;SDS011;57543;45.442;9.212;2023-02-17T09:39:55;24.33;;;16.23;;
70169;SDS011;57543;45.442;9.212;2023-02-17T09:42:58;27.02;;;16.23;;
70169;SDS011;57543;45.442;9.212;2023-02-17T09:46:05;26.63;;;16.30;;
70169;SDS011;57543;45.442;9.212;2023-02-17T09:49:14;28.20;;;16.80;;
70169;SDS011;57543;45.442;9.212;2023-02-17T09:55:56;23.80;;;15.30;;
70169;SDS011;57543;45.442;9.212;2023-02-17T09:59:04;25.80;;;15.13;;
70169;SDS011;57543;45.442;9.212;2023-02-17T10:02:26;24.50;;;14.95;;
70169;SDS011;57543;45.442;9.212;2023-02-17T10:05:42;25.20;;;15.55;;
70169;SDS011;57543;45.442;9.212;2023-02-17T10:08:55;26.90;;;15.27;;
70169;SDS011;57543;45.442;9.212;2023-02-17T10:12:13;23.23;;;14.17;;
70169;SDS011;57543;45.442;9.212;2023-02-17T10:15:24;22.35;;;13.27;;
70169;SDS011;57543;45.442;9.212;2023-02-17T10:19:15;21.83;;;13.82;;
70169;SDS011;57543;45.442;9.212;2023-02-17T10:22:13;21.02;;;12.95;;
70169;SDS011;57543;45.442;9.212;2023-02-17T10:25:23;20.13;;;13.43;;
70169;SDS011;57543;45.442;9.212;2023-02-17T10:28:56;21.73;;;13.80;;
70169;SDS011;57543;45.442;9.212;2023-02-17T10:38:34;16.08;;;11.00;;
70169;SDS011;57543;45.442;9.212;2023-02-17T10:41:43;17.35;;;10.77;;
70169;SDS011;57543;45.442;9.212;2023-02-17T10:44:50;15.53;;;9.70;;
70169;SDS011;57543;45.442;9.212;2023-02-17T10:48:01;15.55;;;9.88;;
70169;SDS011;57543;45.442;9.212;2023-02-17T10:51:11;15.05;;;9.77;;
70169;SDS011;57543;45.442;9.212;2023-02-17T10:54:23;18.50;;;9.75;;
70169;SDS011;57543;45.442;9.212;2023-02-17T10:57:36;16.00;;;9.80;;
70169;SDS011;57543;45.442;9.212;2023-02-17T11:00:41;15.50;;;9.83;;
70169;SDS011;57543;45.442;9.212;2023-02-17T11:03:44;18.33;;;11.20;;
70169;SDS011;57543;45.442;9.212;2023-02-17T11:06:49;16.27;;;11.05;;
70169;SDS011;57543;45.442;9.212;2023-02-17T11:09:55;14.02;;;9.50;;
70169;SDS011;57543;45.442;9.212;2023-02-17T11:13:05;16.50;;;11.13;;
70169;SDS011;57543;45.442;9.212;2023-02-17T11:16:38;15.93;;;9.70;;
70169;SDS011;57543;45.442;9.212;2023-02-17T11:19:53;16.15;;;10.82;;
70169;SDS011;57543;45.442;9.212;2023-02-17T11:23:03;17.58;;;10.05;;
70169;SDS011;57543;45.442;9.212;2023-02-17T11:26:28;16.90;;;9.98;;
70169;SDS011;57543;45.442;9.212;2023-02-17T11:29:33;14.63;;;9.50;;
70169;SDS011;57543;45.442;9.212;2023-02-17T11:32:36;16.13;;;10.33;;
70169;SDS011;57543;45.442;9.212;2023-02-17T11:38:44;17.33;;;10.48;;
70169;SDS011;57543;45.442;9.212;2023-02-17T11:41:48;13.38;;;9.63;;
70169;SDS011;57543;45.442;9.212;2023-02-17T11:44:52;15.75;;;9.27;;
70169;SDS011;57543;45.442;9.212;2023-02-17T11:48:16;14.30;;;9.30;;
70169;SDS011;57543;45.442;9.212;2023-02-17T11:51:50;15.88;;;9.70;;
70169;SDS011;57543;45.442;9.212;2023-02-17T11:58:27;13.48;;;9.20;;
70169;SDS011;57543;45.442;9.212;2023-02-17T12:05:21;15.20;;;8.70;;
70169;SDS011;57543;45.442;9.212;2023-02-17T12:12:21;15.27;;;9.48;;
70169;SDS011;57543;45.442;9.212;2023-02-17T12:15:41;18.70;;;10.25;;
70169;SDS011;57543;45.442;9.212;2023-02-17T12:19:30;17.95;;;10.13;;
70169;SDS011;57543;45.442;9.212;2023-02-17T12:26:07;15.20;;;9.85;;
70169;SDS011;57543;45.442;9.212;2023-02-17T12:35:56;14.90;;;10.00;;
70169;SDS011;57543;45.442;9.212;2023-02-17T12:42:37;16.42;;;9.23;;
70169;SDS011;57543;45.442;9.212;2023-02-17T12:45:45;17.52;;;9.85;;
70169;SDS011;57543;45.442;9.212;2023-02-17T12:49:11;15.25;;;9.13;;
70169;SDS011;57543;45.442;9.212;2023-02-17T12:55:29;16.97;;;10.27;;
70169;SDS011;57543;45.442;9.212;2023-02-17T12:58:44;16.17;;;10.10;;
70169;SDS011;57543;45.442;9.212;2023-02-17T13:02:10;18.42;;;10.90;;
70169;SDS011;57543;45.442;9.212;2023-02-17T13:05:24;16.58;;;10.65;;
70169;SDS011;57543;45.442;9.212;2023-02-17T13:08:54;18.30;;;11.65;;
70169;SDS011;57543;45.442;9.212;2023-02-17T13:15:26;15.90;;;10.48;;
70169;SDS011;57543;45.442;9.212;2023-02-17T13:18:45;16.65;;;10.07;;
70169;SDS011;57543;45.442;9.212;2023-02-17T13:21:51;15.75;;;10.70;;
70169;SDS011;57543;45.442;9.212;2023-02-17T13:24:56;19.38;;;11.73;;
70169;SDS011;57543;45.442;9.212;2023-02-17T13:28:00;16.27;;;10.90;;
70169;SDS011;57543;45.442;9.212;2023-02-17T13:31:10;18.10;;;10.68;;
70169;SDS011;57543;45.442;9.212;2023-02-17T13:34:30;19.25;;;10.85;;
70169;SDS011;57543;45.442;9.212;2023-02-17T13:40:39;21.05;;;11.60;;
70169;SDS011;57543;45.442;9.212;2023-02-17T13:43:45;18.43;;;10.57;;
70169;SDS011;57543;45.442;9.212;2023-02-17T13:46:49;16.70;;;10.20;;
70169;SDS011;57543;45.442;9.212;2023-02-17T13:49:54;17.75;;;9.73;;
70169;SDS011;57543;45.442;9.212;2023-02-17T13:52:59;16.83;;;9.57;;
70169;SDS011;57543;45.442;9.212;2023-02-17T13:56:05;16.92;;;9.98;;
70169;SDS011;57543;45.442;9.212;2023-02-17T13:59:15;15.57;;;9.23;;
70169;SDS011;57543;45.442;9.212;2023-02-17T14:02:21;14.07;;;9.23;;
70169;SDS011;57543;45.442;9.212;2023-02-17T14:08:35;15.07;;;9.00;;
70169;SDS011;57543;45.442;9.212;2023-02-17T14:11:41;15.00;;;9.02;;
70169;SDS011;57543;45.442;9.212;2023-02-17T14:14:45;17.40;;;10.40;;
70169;SDS011;57543;45.442;9.212;2023-02-17T14:17:48;16.38;;;9.52;;
70169;SDS011;57543;45.442;9.212;2023-02-17T14:21:27;19.02;;;10.25;;
70169;SDS011;57543;45.442;9.212;2023-02-17T14:24:31;14.82;;;9.07;;
70169;SDS011;57543;45.442;9.212;2023-02-17T14:27:40;15.68;;;9.27;;
70169;SDS011;57543;45.442;9.212;2023-02-17T14:30:43;15.37;;;9.33;;
70169;SDS011;57543;45.442;9.212;2023-02-17T14:34:06;17.38;;;9.77;;
70169;SDS011;57543;45.442;9.212;2023-02-17T14:37:17;16.60;;;9.52;;
70169;SDS011;57543;45.442;9.212;2023-02-17T14:40:25;16.65;;;9.82;;
70169;SDS011;57543;45.442;9.212;2023-02-17T14:43:28;19.52;;;10.52;;
70169;SDS011;57543;45.442;9.212;2023-02-17T14:46:33;19.23;;;10.27;;
70169;SDS011;57543;45.442;9.212;2023-02-17T14:49:37;15.55;;;9.63;;
70169;SDS011;57543;45.442;9.212;2023-02-17T14:52:41;18.02;;;9.48;;
70169;SDS011;57543;45.442;9.212;2023-02-17T14:55:49;17.23;;;10.70;;
70169;SDS011;57543;45.442;9.212;2023-02-17T14:58:58;19.17;;;11.15;;
70169;SDS011;57543;45.442;9.212;2023-02-17T15:02:02;16.13;;;9.90;;
70169;SDS011;57543;45.442;9.212;2023-02-17T15:05:06;16.75;;;9.57;;
70169;SDS011;57543;45.442;9.212;2023-02-17T15:08:11;18.35;;;10.80;;
70169;SDS011;57543;45.442;9.212;2023-02-17T15:11:19;19.98;;;11.45;;
70169;SDS011;57543;45.442;9.212;2023-02-17T15:14:28;19.10;;;11.38;;
70169;SDS011;57543;45.442;9.212;2023-02-17T15:17:32;17.13;;;10.13;;
70169;SDS011;57543;45.442;9.212;2023-02-17T15:20:36;20.67;;;9.75;;
70169;SDS011;57543;45.442;9.212;2023-02-17T15:23:42;17.05;;;10.10;;
70169;SDS011;57543;45.442;9.212;2023-02-17T15:26:46;18.25;;;10.60;;
70169;SDS011;57543;45.442;9.212;2023-02-17T15:29:50;18.52;;;11.07;;
70169;SDS011;57543;45.442;9.212;2023-02-17T15:32:53;17.53;;;10.33;;
70169;SDS011;57543;45.442;9.212;2023-02-17T15:35:57;17.70;;;10.82;;
70169;SDS011;57543;45.442;9.212;2023-02-17T15:39:01;17.35;;;10.50;;
70169;SDS011;57543;45.442;9.212;2023-02-17T15:42:06;17.10;;;9.60;;
70169;SDS011;57543;45.442;9.212;2023-02-17T15:45:15;19.27;;;10.60;;
70169;SDS011;57543;45.442;9.212;2023-02-17T15:48:25;17.63;;;10.47;;
70169;SDS011;57543;45.442;9.212;2023-02-17T15:51:32;18.70;;;11.07;;
70169;SDS011;57543;45.442;9.212;2023-02-17T15:54:36;20.58;;;11.77;;
70169;SDS011;57543;45.442;9.212;2023-02-17T15:57:41;21.10;;;11.70;;
70169;SDS011;57543;45.442;9.212;2023-02-17T16:00:48;19.42;;;11.00;;
70169;SDS011;57543;45.442;9.212;2023-02-17T16:03:53;17.43;;;9.53;;
70169;SDS011;57543;45.442;9.212;2023-02-17T16:06:58;16.88;;;10.30;;
70169;SDS011;57543;45.442;9.212;2023-02-17T16:10:02;19.38;;;11.25;;
70169;SDS011;57543;45.442;9.212;2023-02-17T16:13:08;21.00;;;11.52;;
70169;SDS011;57543;45.442;9.212;2023-02-17T16:16:19;19.45;;;11.10;;
70169;SDS011;57543;45.442;9.212;2023-02-17T16:19:24;18.83;;;11.23;;
70169;SDS011;57543;45.442;9.212;2023-02-17T16:22:28;20.13;;;11.65;;
70169;SDS011;57543;45.442;9.212;2023-02-17T16:25:32;17.13;;;11.00;;
70169;SDS011;57543;45.442;9.212;2023-02-17T16:28:38;19.98;;;12.07;;
70169;SDS011;57543;45.442;9.212;2023-02-17T16:31:42;20.15;;;11.70;;
70169;SDS011;57543;45.442;9.212;2023-02-17T16:34:46;21.57;;;11.13;;
70169;SDS011;57543;45.442;9.212;2023-02-17T16:37:53;17.27;;;10.23;;
70169;SDS011;57543;45.442;9.212;2023-02-17T16:40:59;18.85;;;10.50;;
70169;SDS011;57543;45.442;9.212;2023-02-17T16:44:03;16.98;;;10.38;;
70169;SDS011;57543;45.442;9.212;2023-02-17T16:47:15;18.80;;;9.95;;
70169;SDS011;57543;45.442;9.212;2023-02-17T16:50:25;19.97;;;10.43;;
70169;SDS011;57543;45.442;9.212;2023-02-17T16:53:31;18.60;;;10.80;;
70169;SDS011;57543;45.442;9.212;2023-02-17T16:56:35;18.30;;;10.98;;
70169;SDS011;57543;45.442;9.212;2023-02-17T16:59:44;16.52;;;9.48;;
70169;SDS011;57543;45.442;9.212;2023-02-17T17:02:49;18.10;;;10.05;;
70169;SDS011;57543;45.442;9.212;2023-02-17T17:05:53;16.30;;;9.67;;
70169;SDS011;57543;45.442;9.212;2023-02-17T17:08:57;19.52;;;10.48;;
70169;SDS011;57543;45.442;9.212;2023-02-17T17:12:01;17.02;;;10.15;;
70169;SDS011;57543;45.442;9.212;2023-02-17T17:15:04;18.58;;;9.70;;
70169;SDS011;57543;45.442;9.212;2023-02-17T17:18:11;14.43;;;8.85;;
70169;SDS011;57543;45.442;9.212;2023-02-17T17:21:21;14.63;;;8.93;;
70169;SDS011;57543;45.442;9.212;2023-02-17T17:24:25;14.40;;;8.30;;
70169;SDS011;57543;45.442;9.212;2023-02-17T17:27:29;16.33;;;7.97;;
70169;SDS011;57543;45.442;9.212;2023-02-17T17:30:33;14.38;;;7.68;;
70169;SDS011;57543;45.442;9.212;2023-02-17T17:33:37;13.02;;;8.05;;
70169;SDS011;57543;45.442;9.212;2023-02-17T17:36:42;12.73;;;7.17;;
70169;SDS011;57543;45.442;9.212;2023-02-17T17:39:47;14.48;;;7.30;;
70169;SDS011;57543;45.442;9.212;2023-02-17T17:42:51;11.93;;;7.38;;
70169;SDS011;57543;45.442;9.212;2023-02-17T17:45:55;14.23;;;7.40;;
70169;SDS011;57543;45.442;9.212;2023-02-17T17:48:58;12.40;;;7.07;;
70169;SDS011;57543;45.442;9.212;2023-02-17T17:52:03;10.97;;;6.87;;
70169;SDS011;57543;45.442;9.212;2023-02-17T17:55:07;10.95;;;6.90;;
70169;SDS011;57543;45.442;9.212;2023-02-17T17:58:11;11.32;;;6.93;;
70169;SDS011;57543;45.442;9.212;2023-02-17T18:01:15;12.52;;;7.10;;
70169;SDS011;57543;45.442;9.212;2023-02-17T18:04:19;12.00;;;6.70;;
70169;SDS011;57543;45.442;9.212;2023-02-17T18:07:24;11.03;;;6.70;;
70169;SDS011;57543;45.442;9.212;2023-02-17T18:10:28;10.82;;;6.43;;
70169;SDS011;57543;45.442;9.212;2023-02-17T18:13:32;12.68;;;7.38;;
70169;SDS011;57543;45.442;9.212;2023-02-17T18:16:36;11.68;;;6.70;;
70169;SDS011;57543;45.442;9.212;2023-02-17T18:19:41;11.55;;;7.30;;
70169;SDS011;57543;45.442;9.212;2023-02-17T18:22:45;10.27;;;5.80;;
70169;SDS011;57543;45.442;9.212;2023-02-17T18:25:49;10.63;;;6.22;;
70169;SDS011;57543;45.442;9.212;2023-02-17T18:28:52;12.07;;;7.18;;
70169;SDS011;57543;45.442;9.212;2023-02-17T18:31:55;10.35;;;6.25;;
70169;SDS011;57543;45.442;9.212;2023-02-17T18:35:01;13.52;;;6.55;;
70169;SDS011;57543;45.442;9.212;2023-02-17T18:38:05;12.87;;;5.70;;
70169;SDS011;57543;45.442;9.212;2023-02-17T18:41:31;10.27;;;6.13;;
70169;SDS011;57543;45.442;9.212;2023-02-17T18:44:37;10.45;;;6.20;;
70169;SDS011;57543;45.442;9.212;2023-02-17T18:47:41;11.98;;;6.82;;
70169;SDS011;57543;45.442;9.212;2023-02-17T18:50:45;10.90;;;6.68;;
70169;SDS011;57543;45.442;9.212;2023-02-17T18:53:49;12.23;;;6.47;;
70169;SDS011;57543;45.442;9.212;2023-02-17T18:56:53;9.80;;;6.20;;
70169;SDS011;57543;45.442;9.212;2023-02-17T18:59:56;14.52;;;6.47;;
70169;SDS011;57543;45.442;9.212;2023-02-17T19:03:01;11.73;;;7.05;;
70169;SDS011;57543;45.442;9.212;2023-02-17T19:06:08;10.10;;;6.50;;
70169;SDS011;57543;45.442;9.212;2023-02-17T19:09:18;11.17;;;7.00;;
70169;SDS011;57543;45.442;9.212;2023-02-17T19:12:21;10.90;;;6.32;;
70169;SDS011;57543;45.442;9.212;2023-02-17T19:15:25;13.75;;;7.75;;
70169;SDS011;57543;45.442;9.212;2023-02-17T19:18:29;11.45;;;6.82;;
70169;SDS011;57543;45.442;9.212;2023-02-17T19:21:32;12.07;;;7.10;;
70169;SDS011;57543;45.442;9.212;2023-02-17T19:24:37;10.57;;;6.80;;
70169;SDS011;57543;45.442;9.212;2023-02-17T19:27:42;12.50;;;7.07;;